Terminal Aerodrome Forecast
Issued by NWS

Home | Current Version | Previous Version | Text Only | Print | Product List | Glossary On
Versions: 1 2 3 4 5 6 7 8 9 10 11 12 13 14 15 16 17 18 19 20 21 22 23 24 25 26
000
FTUS42 KCAE 232042 AAC
TAFCUB
TAF AMD
KCUB 232042Z 2321/2418 23006KT P6SM VCTS SCT050CB SCT200
      TEMPO 2321/2323 VRB15G25KT 4SM -TSRA BR BKN030CB
     FM240000 VRB03KT P6SM BKN200=

USA.gov is the U.S. government's official web portal to all federal, state and local government web resources and services.